sensor_id;sensor_type;location;lat;lon;timestamp;temperature;humidity
1800;DHT22;919;48.274;12.292;2023-09-12T00:02:01;16.30;99.90
1800;DHT22;919;48.274;12.292;2023-09-12T00:04:28;16.30;99.90
1800;DHT22;919;48.274;12.292;2023-09-12T00:06:56;16.40;99.90
1800;DHT22;919;48.274;12.292;2023-09-12T00:09:24;16.40;99.90
1800;DHT22;919;48.274;12.292;2023-09-12T00:11:51;16.30;99.90
1800;DHT22;919;48.274;12.292;2023-09-12T00:14:19;16.30;99.90
1800;DHT22;919;48.274;12.292;2023-09-12T00:16:46;16.20;99.90
1800;DHT22;919;48.274;12.292;2023-09-12T00:19:13;16.20;99.90
1800;DHT22;919;48.274;12.292;2023-09-12T00:21:40;16.10;99.90
1800;DHT22;919;48.274;12.292;2023-09-12T00:24:07;16.10;99.90
1800;DHT22;919;48.274;12.292;2023-09-12T00:26:36;16.10;99.90
1800;DHT22;919;48.274;12.292;2023-09-12T00:29:03;16.20;99.90
1800;DHT22;919;48.274;12.292;2023-09-12T00:31:30;16.20;99.90
1800;DHT22;919;48.274;12.292;2023-09-12T00:33:57;16.10;99.90
1800;DHT22;919;48.274;12.292;2023-09-12T00:36:24;16.00;99.90
1800;DHT22;919;48.274;12.292;2023-09-12T00:38:50;15.90;99.90
1800;DHT22;919;48.274;12.292;2023-09-12T00:41:18;15.90;99.90
1800;DHT22;919;48.274;12.292;2023-09-12T00:43:46;15.80;99.90
1800;DHT22;919;48.274;12.292;2023-09-12T00:46:14;15.80;99.90
1800;DHT22;919;48.274;12.292;2023-09-12T00:48:45;15.80;99.90
1800;DHT22;919;48.274;12.292;2023-09-12T00:51:15;15.70;99.90
1800;DHT22;919;48.274;12.292;2023-09-12T00:53:43;15.70;99.90
1800;DHT22;919;48.274;12.292;2023-09-12T00:56:11;15.70;99.90
1800;DHT22;919;48.274;12.292;2023-09-12T00:58:39;15.70;99.90
1800;DHT22;919;48.274;12.292;2023-09-12T01:01:08;15.60;99.90
1800;DHT22;919;48.274;12.292;2023-09-12T01:03:35;15.50;99.90
1800;DHT22;919;48.274;12.292;2023-09-12T01:06:02;15.50;99.90
1800;DHT22;919;48.274;12.292;2023-09-12T01:08:32;15.30;99.90
1800;DHT22;919;48.274;12.292;2023-09-12T01:10:59;15.30;99.90
1800;DHT22;919;48.274;12.292;2023-09-12T01:13:27;15.40;99.90
1800;DHT22;919;48.274;12.292;2023-09-12T01:15:54;15.40;99.90
1800;DHT22;919;48.274;12.292;2023-09-12T01:18:23;15.40;99.90
1800;DHT22;919;48.274;12.292;2023-09-12T01:21:08;15.10;99.90
1800;DHT22;919;48.274;12.292;2023-09-12T01:23:51;15.00;99.90
1800;DHT22;919;48.274;12.292;2023-09-12T01:26:41;14.90;99.90
1800;DHT22;919;48.274;12.292;2023-09-12T01:29:12;15.10;99.90
1800;DHT22;919;48.274;12.292;2023-09-12T01:31:40;15.10;99.90
1800;DHT22;919;48.274;12.292;2023-09-12T01:34:11;15.20;99.90
1800;DHT22;919;48.274;12.292;2023-09-12T01:36:39;15.20;99.90
1800;DHT22;919;48.274;12.292;2023-09-12T01:39:06;15.10;99.90
1800;DHT22;919;48.274;12.292;2023-09-12T01:41:35;15.00;99.90
1800;DHT22;919;48.274;12.292;2023-09-12T01:44:06;15.00;99.90
1800;DHT22;919;48.274;12.292;2023-09-12T01:46:38;15.00;99.90
1800;DHT22;919;48.274;12.292;2023-09-12T01:49:05;15.00;99.90
1800;DHT22;919;48.274;12.292;2023-09-12T01:51:34;15.00;99.90
1800;DHT22;919;48.274;12.292;2023-09-12T01:54:03;15.00;99.90
1800;DHT22;919;48.274;12.292;2023-09-12T01:56:30;14.90;99.90
1800;DHT22;919;48.274;12.292;2023-09-12T01:58:58;14.90;99.90
1800;DHT22;919;48.274;12.292;2023-09-12T02:01:25;15.00;99.90
1800;DHT22;919;48.274;12.292;2023-09-12T02:03:54;14.90;99.90
1800;DHT22;919;48.274;12.292;2023-09-12T02:06:21;15.00;99.90
1800;DHT22;919;48.274;12.292;2023-09-12T02:08:48;15.00;99.90
1800;DHT22;919;48.274;12.292;2023-09-12T02:11:15;15.00;99.90
1800;DHT22;919;48.274;12.292;2023-09-12T02:13:42;15.10;99.90
1800;DHT22;919;48.274;12.292;2023-09-12T02:16:09;15.10;99.90
1800;DHT22;919;48.274;12.292;2023-09-12T02:18:35;15.10;99.90
1800;DHT22;919;48.274;12.292;2023-09-12T02:21:04;15.10;99.90
1800;DHT22;919;48.274;12.292;2023-09-12T02:23:31;15.00;99.90
1800;DHT22;919;48.274;12.292;2023-09-12T02:25:57;15.00;99.90
1800;DHT22;919;48.274;12.292;2023-09-12T02:28:24;14.90;99.90
1800;DHT22;919;48.274;12.292;2023-09-12T02:30:51;14.90;99.90
1800;DHT22;919;48.274;12.292;2023-09-12T02:33:19;14.90;99.90
1800;DHT22;919;48.274;12.292;2023-09-12T02:35:46;14.90;99.90
1800;DHT22;919;48.274;12.292;2023-09-12T02:38:15;14.90;99.90
1800;DHT22;919;48.274;12.292;2023-09-12T02:40:42;14.90;99.90
1800;DHT22;919;48.274;12.292;2023-09-12T02:43:09;14.90;99.90
1800;DHT22;919;48.274;12.292;2023-09-12T02:45:35;14.90;99.90
1800;DHT22;919;48.274;12.292;2023-09-12T02:48:03;14.90;99.90
1800;DHT22;919;48.274;12.292;2023-09-12T02:50:30;14.90;99.90
1800;DHT22;919;48.274;12.292;2023-09-12T02:52:56;14.90;99.90
1800;DHT22;919;48.274;12.292;2023-09-12T02:55:24;15.00;99.90
1800;DHT22;919;48.274;12.292;2023-09-12T02:57:51;15.00;99.90
1800;DHT22;919;48.274;12.292;2023-09-12T03:00:19;14.90;99.90
1800;DHT22;919;48.274;12.292;2023-09-12T03:02:46;14.90;99.90
1800;DHT22;919;48.274;12.292;2023-09-12T03:05:13;14.90;99.90
1800;DHT22;919;48.274;12.292;2023-09-12T03:07:39;14.80;99.90
1800;DHT22;919;48.274;12.292;2023-09-12T03:10:07;14.80;99.90
1800;DHT22;919;48.274;12.292;2023-09-12T03:12:36;14.70;99.90
1800;DHT22;919;48.274;12.292;2023-09-12T03:15:04;14.70;99.90
1800;DHT22;919;48.274;12.292;2023-09-12T03:17:30;14.60;99.90
1800;DHT22;919;48.274;12.292;2023-09-12T03:19:57;14.60;99.90
1800;DHT22;919;48.274;12.292;2023-09-12T03:22:25;14.50;99.90
1800;DHT22;919;48.274;12.292;2023-09-12T03:24:52;14.40;99.90
1800;DHT22;919;48.274;12.292;2023-09-12T03:27:19;14.40;99.90
1800;DHT22;919;48.274;12.292;2023-09-12T03:29:48;14.40;99.90
1800;DHT22;919;48.274;12.292;2023-09-12T03:32:15;14.50;99.90
1800;DHT22;919;48.274;12.292;2023-09-12T03:34:43;14.40;99.90
1800;DHT22;919;48.274;12.292;2023-09-12T03:37:10;14.40;99.90
1800;DHT22;919;48.274;12.292;2023-09-12T03:39:44;14.50;99.90
1800;DHT22;919;48.274;12.292;2023-09-12T03:42:11;14.40;99.90
1800;DHT22;919;48.274;12.292;2023-09-12T03:44:38;14.40;99.90
1800;DHT22;919;48.274;12.292;2023-09-12T03:47:07;14.40;99.90
1800;DHT22;919;48.274;12.292;2023-09-12T03:49:35;14.40;99.90
1800;DHT22;919;48.274;12.292;2023-09-12T03:52:03;14.40;99.90
1800;DHT22;919;48.274;12.292;2023-09-12T03:54:30;14.40;99.90
1800;DHT22;919;48.274;12.292;2023-09-12T03:56:58;14.50;99.90
1800;DHT22;919;48.274;12.292;2023-09-12T03:59:32;14.50;99.90
1800;DHT22;919;48.274;12.292;2023-09-12T04:02:01;14.50;99.90
1800;DHT22;919;48.274;12.292;2023-09-12T04:04:30;14.40;99.90
1800;DHT22;919;48.274;12.292;2023-09-12T04:06:57;14.40;99.90
1800;DHT22;919;48.274;12.292;2023-09-12T04:09:24;14.40;99.90
1800;DHT22;919;48.274;12.292;2023-09-12T04:11:53;14.30;99.90
1800;DHT22;919;48.274;12.292;2023-09-12T04:14:21;14.30;99.90
1800;DHT22;919;48.274;12.292;2023-09-12T04:16:48;14.20;99.90
1800;DHT22;919;48.274;12.292;2023-09-12T04:19:16;14.20;99.90
1800;DHT22;919;48.274;12.292;2023-09-12T04:21:45;14.20;99.90
1800;DHT22;919;48.274;12.292;2023-09-12T04:24:13;14.20;99.90
1800;DHT22;919;48.274;12.292;2023-09-12T04:26:42;14.10;99.90
1800;DHT22;919;48.274;12.292;2023-09-12T04:29:09;14.00;99.90
1800;DHT22;919;48.274;12.292;2023-09-12T04:31:37;14.10;99.90
1800;DHT22;919;48.274;12.292;2023-09-12T04:34:05;14.10;99.90
1800;DHT22;919;48.274;12.292;2023-09-12T04:36:33;14.10;99.90
1800;DHT22;919;48.274;12.292;2023-09-12T04:39:02;14.00;99.90
1800;DHT22;919;48.274;12.292;2023-09-12T04:41:29;13.90;99.90
1800;DHT22;919;48.274;12.292;2023-09-12T04:43:57;13.80;99.90
1800;DHT22;919;48.274;12.292;2023-09-12T04:46:26;13.80;99.90
1800;DHT22;919;48.274;12.292;2023-09-12T04:48:53;14.00;99.90
1800;DHT22;919;48.274;12.292;2023-09-12T04:51:20;14.00;99.90
1800;DHT22;919;48.274;12.292;2023-09-12T04:53:48;14.10;99.90
1800;DHT22;919;48.274;12.292;2023-09-12T04:56:18;14.00;99.90
1800;DHT22;919;48.274;12.292;2023-09-12T04:58:46;13.90;99.90
1800;DHT22;919;48.274;12.292;2023-09-12T05:01:14;13.90;99.90
1800;DHT22;919;48.274;12.292;2023-09-12T05:03:42;13.80;99.90
1800;DHT22;919;48.274;12.292;2023-09-12T05:06:12;13.90;99.90
1800;DHT22;919;48.274;12.292;2023-09-12T05:08:40;13.90;99.90
1800;DHT22;919;48.274;12.292;2023-09-12T05:11:08;13.90;99.90
1800;DHT22;919;48.274;12.292;2023-09-12T05:13:37;13.90;99.90
1800;DHT22;919;48.274;12.292;2023-09-12T05:16:06;13.90;99.90
1800;DHT22;919;48.274;12.292;2023-09-12T05:18:33;13.90;99.90
1800;DHT22;919;48.274;12.292;2023-09-12T05:21:01;13.90;99.90
1800;DHT22;919;48.274;12.292;2023-09-12T05:23:28;13.90;99.90
1800;DHT22;919;48.274;12.292;2023-09-12T05:25:56;14.00;99.90
1800;DHT22;919;48.274;12.292;2023-09-12T05:28:23;14.10;99.90
1800;DHT22;919;48.274;12.292;2023-09-12T05:30:52;14.10;99.90
1800;DHT22;919;48.274;12.292;2023-09-12T05:33:19;14.10;99.90
1800;DHT22;919;48.274;12.292;2023-09-12T05:35:48;14.00;99.90
1800;DHT22;919;48.274;12.292;2023-09-12T05:38:15;14.20;99.90
1800;DHT22;919;48.274;12.292;2023-09-12T05:40:42;14.40;99.90
1800;DHT22;919;48.274;12.292;2023-09-12T05:43:09;14.50;99.90
1800;DHT22;919;48.274;12.292;2023-09-12T05:45:36;14.60;99.90
1800;DHT22;919;48.274;12.292;2023-09-12T05:48:05;14.60;99.90
1800;DHT22;919;48.274;12.292;2023-09-12T05:50:33;14.70;99.90
1800;DHT22;919;48.274;12.292;2023-09-12T05:53:00;14.80;99.90
1800;DHT22;919;48.274;12.292;2023-09-12T05:55:28;14.80;99.90
1800;DHT22;919;48.274;12.292;2023-09-12T05:57:55;14.70;99.90
1800;DHT22;919;48.274;12.292;2023-09-12T06:00:28;14.70;99.90
1800;DHT22;919;48.274;12.292;2023-09-12T06:02:56;14.80;99.90
1800;DHT22;919;48.274;12.292;2023-09-12T06:05:26;14.90;99.90
1800;DHT22;919;48.274;12.292;2023-09-12T06:07:55;15.00;99.90
1800;DHT22;919;48.274;12.292;2023-09-12T06:10:22;15.20;99.90
1800;DHT22;919;48.274;12.292;2023-09-12T06:12:50;15.30;99.90
1800;DHT22;919;48.274;12.292;2023-09-12T06:15:18;15.40;99.90
1800;DHT22;919;48.274;12.292;2023-09-12T06:17:46;15.40;99.90
1800;DHT22;919;48.274;12.292;2023-09-12T06:20:13;15.60;99.90
1800;DHT22;919;48.274;12.292;2023-09-12T06:22:42;15.70;99.90
1800;DHT22;919;48.274;12.292;2023-09-12T06:25:10;15.80;99.90
1800;DHT22;919;48.274;12.292;2023-09-12T06:27:37;16.00;99.90
1800;DHT22;919;48.274;12.292;2023-09-12T06:30:05;16.00;99.90
1800;DHT22;919;48.274;12.292;2023-09-12T06:32:32;16.10;99.90
1800;DHT22;919;48.274;12.292;2023-09-12T06:34:59;16.10;99.90
1800;DHT22;919;48.274;12.292;2023-09-12T06:37:26;16.20;99.90
1800;DHT22;919;48.274;12.292;2023-09-12T06:39:57;16.30;99.90
1800;DHT22;919;48.274;12.292;2023-09-12T06:42:28;16.40;99.90
1800;DHT22;919;48.274;12.292;2023-09-12T06:44:56;16.40;99.90
1800;DHT22;919;48.274;12.292;2023-09-12T06:47:23;16.50;99.90
1800;DHT22;919;48.274;12.292;2023-09-12T06:49:50;16.70;99.90
1800;DHT22;919;48.274;12.292;2023-09-12T06:52:18;16.80;99.90
1800;DHT22;919;48.274;12.292;2023-09-12T06:54:44;16.90;99.90
1800;DHT22;919;48.274;12.292;2023-09-12T06:57:13;17.00;99.90
1800;DHT22;919;48.274;12.292;2023-09-12T06:59:41;17.10;99.90
1800;DHT22;919;48.274;12.292;2023-09-12T07:02:08;17.20;99.90
1800;DHT22;919;48.274;12.292;2023-09-12T07:04:36;17.30;99.90
1800;DHT22;919;48.274;12.292;2023-09-12T07:07:03;17.30;99.90
1800;DHT22;919;48.274;12.292;2023-09-12T07:09:30;17.40;99.90
1800;DHT22;919;48.274;12.292;2023-09-12T07:11:57;17.50;99.90
1800;DHT22;919;48.274;12.292;2023-09-12T07:14:25;17.70;99.90
1800;DHT22;919;48.274;12.292;2023-09-12T07:16:52;17.80;99.90
1800;DHT22;919;48.274;12.292;2023-09-12T07:19:18;17.80;99.90
1800;DHT22;919;48.274;12.292;2023-09-12T07:21:45;18.00;99.90
1800;DHT22;919;48.274;12.292;2023-09-12T07:24:12;18.10;99.90
1800;DHT22;919;48.274;12.292;2023-09-12T07:26:39;18.20;99.90
1800;DHT22;919;48.274;12.292;2023-09-12T07:29:06;18.30;99.90
1800;DHT22;919;48.274;12.292;2023-09-12T07:31:34;18.40;99.90
1800;DHT22;919;48.274;12.292;2023-09-12T07:34:00;18.50;99.90
1800;DHT22;919;48.274;12.292;2023-09-12T07:36:27;18.60;99.90
1800;DHT22;919;48.274;12.292;2023-09-12T07:38:54;18.70;99.90
1800;DHT22;919;48.274;12.292;2023-09-12T07:41:21;18.70;99.90
1800;DHT22;919;48.274;12.292;2023-09-12T07:43:47;18.80;99.90
1800;DHT22;919;48.274;12.292;2023-09-12T07:46:14;18.90;99.90
1800;DHT22;919;48.274;12.292;2023-09-12T07:48:42;19.10;99.90
1800;DHT22;919;48.274;12.292;2023-09-12T07:51:12;19.20;99.90
1800;DHT22;919;48.274;12.292;2023-09-12T07:53:40;19.40;99.90
1800;DHT22;919;48.274;12.292;2023-09-12T07:56:08;19.40;99.90
1800;DHT22;919;48.274;12.292;2023-09-12T07:58:35;19.50;99.90
1800;DHT22;919;48.274;12.292;2023-09-12T08:01:05;19.60;99.90
1800;DHT22;919;48.274;12.292;2023-09-12T08:03:32;19.80;99.90
1800;DHT22;919;48.274;12.292;2023-09-12T08:06:00;19.90;99.90
1800;DHT22;919;48.274;12.292;2023-09-12T08:08:27;20.00;99.90
1800;DHT22;919;48.274;12.292;2023-09-12T08:10:53;20.10;99.90
1800;DHT22;919;48.274;12.292;2023-09-12T08:13:22;20.20;99.90
1800;DHT22;919;48.274;12.292;2023-09-12T08:15:48;20.20;99.90
1800;DHT22;919;48.274;12.292;2023-09-12T08:18:15;20.30;99.90
1800;DHT22;919;48.274;12.292;2023-09-12T08:20:42;20.40;99.90
1800;DHT22;919;48.274;12.292;2023-09-12T08:23:11;20.40;99.90
1800;DHT22;919;48.274;12.292;2023-09-12T08:25:39;20.50;99.90
1800;DHT22;919;48.274;12.292;2023-09-12T08:28:06;20.60;99.90
1800;DHT22;919;48.274;12.292;2023-09-12T08:30:32;20.70;99.90
1800;DHT22;919;48.274;12.292;2023-09-12T08:32:59;20.70;99.90
1800;DHT22;919;48.274;12.292;2023-09-12T08:35:28;20.80;99.90
1800;DHT22;919;48.274;12.292;2023-09-12T08:37:55;21.00;99.90
1800;DHT22;919;48.274;12.292;2023-09-12T08:40:23;21.20;99.90
1800;DHT22;919;48.274;12.292;2023-09-12T08:42:52;21.30;99.90
1800;DHT22;919;48.274;12.292;2023-09-12T08:45:19;21.50;99.90
1800;DHT22;919;48.274;12.292;2023-09-12T08:47:50;21.50;99.90
1800;DHT22;919;48.274;12.292;2023-09-12T08:50:17;21.70;99.90
1800;DHT22;919;48.274;12.292;2023-09-12T08:52:45;21.90;99.90
1800;DHT22;919;48.274;12.292;2023-09-12T08:55:12;22.10;99.90
1800;DHT22;919;48.274;12.292;2023-09-12T08:57:41;22.10;99.90
1800;DHT22;919;48.274;12.292;2023-09-12T09:00:09;22.40;99.90
1800;DHT22;919;48.274;12.292;2023-09-12T09:02:39;22.60;99.90
1800;DHT22;919;48.274;12.292;2023-09-12T09:05:07;22.80;99.90
1800;DHT22;919;48.274;12.292;2023-09-12T09:07:36;22.90;99.90
1800;DHT22;919;48.274;12.292;2023-09-12T09:10:04;22.90;99.90
1800;DHT22;919;48.274;12.292;2023-09-12T09:12:31;23.10;99.90
1800;DHT22;919;48.274;12.292;2023-09-12T09:15:20;23.30;99.90
1800;DHT22;919;48.274;12.292;2023-09-12T09:17:46;23.60;99.90
1800;DHT22;919;48.274;12.292;2023-09-12T09:20:21;23.70;99.90
1800;DHT22;919;48.274;12.292;2023-09-12T09:22:56;23.70;99.90
1800;DHT22;919;48.274;12.292;2023-09-12T09:25:24;23.70;99.90
1800;DHT22;919;48.274;12.292;2023-09-12T09:27:50;23.80;99.90
1800;DHT22;919;48.274;12.292;2023-09-12T09:30:20;23.90;99.90
1800;DHT22;919;48.274;12.292;2023-09-12T09:32:54;24.00;99.90
1800;DHT22;919;48.274;12.292;2023-09-12T09:35:21;24.10;99.90
1800;DHT22;919;48.274;12.292;2023-09-12T09:37:47;24.30;99.90
1800;DHT22;919;48.274;12.292;2023-09-12T09:40:14;24.40;99.90
1800;DHT22;919;48.274;12.292;2023-09-12T09:42:41;24.70;99.90
1800;DHT22;919;48.274;12.292;2023-09-12T09:45:09;24.90;99.90
1800;DHT22;919;48.274;12.292;2023-09-12T09:47:37;25.00;99.90
1800;DHT22;919;48.274;12.292;2023-09-12T09:50:04;25.00;99.90
1800;DHT22;919;48.274;12.292;2023-09-12T09:52:31;25.00;99.90
1800;DHT22;919;48.274;12.292;2023-09-12T09:54:58;25.20;99.90
1800;DHT22;919;48.274;12.292;2023-09-12T09:57:26;25.40;99.90
1800;DHT22;919;48.274;12.292;2023-09-12T09:59:54;25.40;99.90
1800;DHT22;919;48.274;12.292;2023-09-12T10:02:22;25.70;99.90
1800;DHT22;919;48.274;12.292;2023-09-12T10:04:54;25.80;99.90
1800;DHT22;919;48.274;12.292;2023-09-12T10:07:22;25.90;99.90
1800;DHT22;919;48.274;12.292;2023-09-12T10:09:49;25.90;99.90
1800;DHT22;919;48.274;12.292;2023-09-12T10:12:16;26.10;99.90
1800;DHT22;919;48.274;12.292;2023-09-12T10:14:43;26.20;99.90
1800;DHT22;919;48.274;12.292;2023-09-12T10:17:12;26.30;99.90
1800;DHT22;919;48.274;12.292;2023-09-12T10:19:49;26.40;99.90
1800;DHT22;919;48.274;12.292;2023-09-12T10:22:23;26.50;99.90
1800;DHT22;919;48.274;12.292;2023-09-12T10:24:50;26.60;99.90
1800;DHT22;919;48.274;12.292;2023-09-12T10:27:19;26.80;99.90
1800;DHT22;919;48.274;12.292;2023-09-12T10:29:45;26.80;99.90
1800;DHT22;919;48.274;12.292;2023-09-12T10:32:15;27.00;99.90
1800;DHT22;919;48.274;12.292;2023-09-12T10:34:44;27.20;99.90
1800;DHT22;919;48.274;12.292;2023-09-12T10:37:15;27.20;99.90
1800;DHT22;919;48.274;12.292;2023-09-12T10:39:44;27.10;99.90
1800;DHT22;919;48.274;12.292;2023-09-12T10:42:13;27.10;99.90
1800;DHT22;919;48.274;12.292;2023-09-12T10:44:42;27.10;99.90
1800;DHT22;919;48.274;12.292;2023-09-12T10:47:11;27.20;99.90
1800;DHT22;919;48.274;12.292;2023-09-12T10:49:43;27.10;99.90
1800;DHT22;919;48.274;12.292;2023-09-12T10:52:10;27.20;99.90
1800;DHT22;919;48.274;12.292;2023-09-12T10:54:51;27.40;99.90
1800;DHT22;919;48.274;12.292;2023-09-12T10:57:19;27.60;99.90
1800;DHT22;919;48.274;12.292;2023-09-12T11:00:10;27.70;99.90
1800;DHT22;919;48.274;12.292;2023-09-12T11:02:38;27.80;99.90
1800;DHT22;919;48.274;12.292;2023-09-12T11:05:07;27.80;99.90
1800;DHT22;919;48.274;12.292;2023-09-12T11:07:56;27.90;99.90
1800;DHT22;919;48.274;12.292;2023-09-12T11:10:26;28.00;99.90
1800;DHT22;919;48.274;12.292;2023-09-12T11:12:55;28.20;99.90
1800;DHT22;919;48.274;12.292;2023-09-12T11:15:24;28.30;99.90
1800;DHT22;919;48.274;12.292;2023-09-12T11:18:00;28.40;99.90
1800;DHT22;919;48.274;12.292;2023-09-12T11:20:53;28.50;99.90
1800;DHT22;919;48.274;12.292;2023-09-12T11:23:25;28.50;99.90
1800;DHT22;919;48.274;12.292;2023-09-12T11:26:04;28.70;99.90
1800;DHT22;919;48.274;12.292;2023-09-12T11:28:33;28.50;99.90
1800;DHT22;919;48.274;12.292;2023-09-12T11:31:01;28.60;99.90
1800;DHT22;919;48.274;12.292;2023-09-12T11:33:29;28.70;99.90
1800;DHT22;919;48.274;12.292;2023-09-12T11:36:00;28.70;99.90
1800;DHT22;919;48.274;12.292;2023-09-12T11:38:30;28.70;99.90
1800;DHT22;919;48.274;12.292;2023-09-12T11:40:59;28.70;99.90
1800;DHT22;919;48.274;12.292;2023-09-12T11:43:28;28.60;99.90
1800;DHT22;919;48.274;12.292;2023-09-12T11:45:56;28.40;99.90
1800;DHT22;919;48.274;12.292;2023-09-12T11:48:24;28.30;99.90
1800;DHT22;919;48.274;12.292;2023-09-12T11:50:53;28.30;99.90
1800;DHT22;919;48.274;12.292;2023-09-12T11:53:21;28.30;99.90
1800;DHT22;919;48.274;12.292;2023-09-12T11:55:53;28.30;99.90
1800;DHT22;919;48.274;12.292;2023-09-12T11:58:20;28.30;99.90
1800;DHT22;919;48.274;12.292;2023-09-12T12:00:51;28.30;99.90
1800;DHT22;919;48.274;12.292;2023-09-12T12:03:21;28.40;99.90
1800;DHT22;919;48.274;12.292;2023-09-12T12:05:48;28.40;99.90
1800;DHT22;919;48.274;12.292;2023-09-12T12:08:17;28.40;99.90
1800;DHT22;919;48.274;12.292;2023-09-12T12:10:49;28.50;99.90
1800;DHT22;919;48.274;12.292;2023-09-12T12:13:17;28.60;99.90
1800;DHT22;919;48.274;12.292;2023-09-12T12:15:58;28.60;99.90
1800;DHT22;919;48.274;12.292;2023-09-12T12:18:31;28.40;99.90
1800;DHT22;919;48.274;12.292;2023-09-12T12:21:00;28.30;99.90
1800;DHT22;919;48.274;12.292;2023-09-12T12:23:28;28.10;99.90
1800;DHT22;919;48.274;12.292;2023-09-12T12:25:55;28.00;99.90
1800;DHT22;919;48.274;12.292;2023-09-12T12:28:23;27.90;99.90
1800;DHT22;919;48.274;12.292;2023-09-12T12:30:53;27.90;99.90
1800;DHT22;919;48.274;12.292;2023-09-12T12:33:23;27.80;99.90
1800;DHT22;919;48.274;12.292;2023-09-12T12:35:59;27.80;99.90
1800;DHT22;919;48.274;12.292;2023-09-12T12:38:35;27.90;99.90
1800;DHT22;919;48.274;12.292;2023-09-12T12:41:04;28.00;99.90
1800;DHT22;919;48.274;12.292;2023-09-12T12:43:36;28.10;99.90
1800;DHT22;919;48.274;12.292;2023-09-12T12:46:10;28.30;99.90
1800;DHT22;919;48.274;12.292;2023-09-12T12:48:44;28.50;99.90
1800;DHT22;919;48.274;12.292;2023-09-12T12:51:37;28.70;99.90
1800;DHT22;919;48.274;12.292;2023-09-12T12:54:13;28.90;99.90
1800;DHT22;919;48.274;12.292;2023-09-12T12:56:53;28.90;99.90
1800;DHT22;919;48.274;12.292;2023-09-12T12:59:37;28.90;99.90
1800;DHT22;919;48.274;12.292;2023-09-12T13:02:05;28.80;99.90
1800;DHT22;919;48.274;12.292;2023-09-12T13:04:37;28.70;99.90
1800;DHT22;919;48.274;12.292;2023-09-12T13:07:04;28.80;99.90
1800;DHT22;919;48.274;12.292;2023-09-12T13:09:31;29.00;99.90
1800;DHT22;919;48.274;12.292;2023-09-12T13:11:57;29.10;99.90
1800;DHT22;919;48.274;12.292;2023-09-12T13:14:24;29.00;99.90
1800;DHT22;919;48.274;12.292;2023-09-12T13:16:57;29.10;99.90
1800;DHT22;919;48.274;12.292;2023-09-12T13:19:25;29.30;99.90
1800;DHT22;919;48.274;12.292;2023-09-12T13:21:54;29.60;99.90
1800;DHT22;919;48.274;12.292;2023-09-12T13:24:23;29.90;99.90
1800;DHT22;919;48.274;12.292;2023-09-12T13:26:55;30.20;99.90
1800;DHT22;919;48.274;12.292;2023-09-12T13:29:23;30.10;99.90
1800;DHT22;919;48.274;12.292;2023-09-12T13:31:50;30.10;99.90
1800;DHT22;919;48.274;12.292;2023-09-12T13:34:16;30.00;99.90
1800;DHT22;919;48.274;12.292;2023-09-12T13:36:43;30.00;99.90
1800;DHT22;919;48.274;12.292;2023-09-12T13:39:11;29.90;99.90
1800;DHT22;919;48.274;12.292;2023-09-12T13:41:39;29.90;99.90
1800;DHT22;919;48.274;12.292;2023-09-12T13:44:06;30.10;99.90
1800;DHT22;919;48.274;12.292;2023-09-12T13:46:33;30.40;99.90
1800;DHT22;919;48.274;12.292;2023-09-12T13:49:00;30.60;99.90
1800;DHT22;919;48.274;12.292;2023-09-12T13:51:29;30.50;99.90
1800;DHT22;919;48.274;12.292;2023-09-12T13:53:56;30.60;99.90
1800;DHT22;919;48.274;12.292;2023-09-12T13:56:24;30.70;99.90
1800;DHT22;919;48.274;12.292;2023-09-12T13:58:51;30.50;99.90
1800;DHT22;919;48.274;12.292;2023-09-12T14:01:18;30.20;99.90
1800;DHT22;919;48.274;12.292;2023-09-12T14:03:45;30.00;99.90
1800;DHT22;919;48.274;12.292;2023-09-12T14:06:12;29.90;99.90
1800;DHT22;919;48.274;12.292;2023-09-12T14:08:39;30.00;99.90
1800;DHT22;919;48.274;12.292;2023-09-12T14:11:06;30.00;99.90
1800;DHT22;919;48.274;12.292;2023-09-12T14:13:34;30.10;99.90
1800;DHT22;919;48.274;12.292;2023-09-12T14:16:01;30.10;99.90
1800;DHT22;919;48.274;12.292;2023-09-12T14:18:28;30.00;99.90
1800;DHT22;919;48.274;12.292;2023-09-12T14:20:57;30.00;99.90
1800;DHT22;919;48.274;12.292;2023-09-12T14:23:23;30.10;99.90
1800;DHT22;919;48.274;12.292;2023-09-12T14:25:50;30.00;99.90
1800;DHT22;919;48.274;12.292;2023-09-12T14:28:18;30.00;99.90
1800;DHT22;919;48.274;12.292;2023-09-12T14:30:46;30.10;99.90
1800;DHT22;919;48.274;12.292;2023-09-12T14:33:15;30.30;99.90
1800;DHT22;919;48.274;12.292;2023-09-12T14:35:43;30.30;99.90
1800;DHT22;919;48.274;12.292;2023-09-12T14:38:10;30.20;99.90
1800;DHT22;919;48.274;12.292;2023-09-12T14:40:37;30.10;99.90
1800;DHT22;919;48.274;12.292;2023-09-12T14:43:05;29.80;99.90
1800;DHT22;919;48.274;12.292;2023-09-12T14:45:33;29.60;99.90
1800;DHT22;919;48.274;12.292;2023-09-12T14:48:01;29.50;99.90
1800;DHT22;919;48.274;12.292;2023-09-12T14:50:28;29.50;99.90
1800;DHT22;919;48.274;12.292;2023-09-12T14:52:55;29.40;99.90
1800;DHT22;919;48.274;12.292;2023-09-12T14:55:22;29.40;99.90
1800;DHT22;919;48.274;12.292;2023-09-12T14:57:49;29.40;99.90
1800;DHT22;919;48.274;12.292;2023-09-12T15:00:16;29.50;99.90
1800;DHT22;919;48.274;12.292;2023-09-12T15:02:43;29.40;99.90
1800;DHT22;919;48.274;12.292;2023-09-12T15:05:11;29.40;99.90
1800;DHT22;919;48.274;12.292;2023-09-12T15:07:38;29.20;99.90
1800;DHT22;919;48.274;12.292;2023-09-12T15:10:05;29.00;99.90
1800;DHT22;919;48.274;12.292;2023-09-12T15:12:32;28.80;99.90
1800;DHT22;919;48.274;12.292;2023-09-12T15:14:59;28.60;99.90
1800;DHT22;919;48.274;12.292;2023-09-12T15:17:26;28.50;99.90
1800;DHT22;919;48.274;12.292;2023-09-12T15:19:52;28.40;99.90
1800;DHT22;919;48.274;12.292;2023-09-12T15:22:21;28.40;99.90
1800;DHT22;919;48.274;12.292;2023-09-12T15:24:47;28.30;99.90
1800;DHT22;919;48.274;12.292;2023-09-12T15:27:14;28.10;99.90
1800;DHT22;919;48.274;12.292;2023-09-12T15:29:41;28.00;99.90
1800;DHT22;919;48.274;12.292;2023-09-12T15:32:07;27.90;99.90
1800;DHT22;919;48.274;12.292;2023-09-12T15:34:35;27.80;99.90
1800;DHT22;919;48.274;12.292;2023-09-12T15:37:09;27.80;99.90
1800;DHT22;919;48.274;12.292;2023-09-12T15:39:38;27.90;99.90
1800;DHT22;919;48.274;12.292;2023-09-12T15:42:05;28.00;99.90
1800;DHT22;919;48.274;12.292;2023-09-12T15:44:32;28.10;99.90
1800;DHT22;919;48.274;12.292;2023-09-12T15:46:59;28.30;99.90
1800;DHT22;919;48.274;12.292;2023-09-12T15:49:27;28.30;99.90
1800;DHT22;919;48.274;12.292;2023-09-12T15:51:54;28.40;99.90
1800;DHT22;919;48.274;12.292;2023-09-12T15:54:21;28.40;99.90
1800;DHT22;919;48.274;12.292;2023-09-12T15:56:49;28.40;99.90
1800;DHT22;919;48.274;12.292;2023-09-12T15:59:16;28.40;99.90
1800;DHT22;919;48.274;12.292;2023-09-12T16:01:42;28.40;99.90
1800;DHT22;919;48.274;12.292;2023-09-12T16:04:09;28.40;99.90
1800;DHT22;919;48.274;12.292;2023-09-12T16:06:36;28.30;99.90
1800;DHT22;919;48.274;12.292;2023-09-12T16:09:03;28.20;99.90
1800;DHT22;919;48.274;12.292;2023-09-12T16:11:31;28.20;99.90